Rockaway, Oregon
Current Conditions -  °F | °C
As of 9:35 PM on Wednesday 22 Oct 2014 (Local Time) from KTMK Reporting Station
Broken Clouds Broken Clouds  
Wind Chill: 12°   Ceiling: 2300
Heat Index: 12°   Visibility: 10mi
Dew Point: 10°   Wind: 8mph
Humidity: 88%   Direction: 160°SSE
Pressure: 29.76"   Gusts: NA
Location:  45.6132°N, 123.654°W
Report Text: KTMK 230435Z AUTO 16007KT 10SM BKN023 BKN050 12/10 A2976 RMK AO2
Loading
Personal Weather Stations






























Interactive Weather Map
Tropical Storm Tracking
New forecast layout! Learn more

10-Day Weather Forecast

Advertisements
Track Severe Weather on mobile